Time;durP1;ratioP1;P1;durP2;ratioP2;P2;SDS_P1;SDS_P2;PMS_P1;PMS_P2;Temp;Humidity;BMP_temperature;BMP_pressure;BME280_temperature;BME280_humidity;BME280_pressure;Samples;Min_cycle;Max_cycle;Signal;HPM_P1;HPM_P2
2022/01/29 00:00:55;;;;;;;38.28;20.38;;;;;;;5.91;79.05;102868.66;5014483;28;20142;-72
2022/01/29 00:03:23;;;;;;;41.67;21.63;;;;;;;5.90;78.82;102867.81;5032680;28;20052;-71
2022/01/29 00:05:50;;;;;;;43.30;20.35;;;;;;;5.93;79.00;102863.50;5033977;28;20053;-69
2022/01/29 00:08:17;;;;;;;45.08;21.50;;;;;;;5.95;78.81;102861.78;5023815;28;20509;-70
2022/01/29 00:10:47;;;;;;;38.42;20.77;;;;;;;5.95;79.03;102861.78;5027961;28;20130;-71
2022/01/29 00:13:14;;;;;;;40.40;20.25;;;;;;;5.95;79.04;102865.28;5031710;28;20042;-71
2022/01/29 00:15:41;;;;;;;39.60;19.60;;;;;;;5.99;78.90;102851.44;5030546;28;20084;-71
2022/01/29 00:18:08;;;;;;;41.80;20.15;;;;;;;5.99;78.88;102846.22;5029192;28;20053;-70
2022/01/29 00:20:35;;;;;;;40.17;21.38;;;;;;;6.00;78.91;102834.84;5037951;28;20052;-70
2022/01/29 00:23:03;;;;;;;40.55;20.60;;;;;;;6.03;78.91;102832.31;5027741;28;20038;-71
2022/01/29 00:25:33;;;;;;;39.22;20.27;;;;;;;6.04;78.86;102839.31;5025131;28;20100;-70
2022/01/29 00:28:00;;;;;;;48.08;22.35;;;;;;;6.06;78.88;102829.75;5030458;28;20046;-72
2022/01/29 00:30:37;;;;;;;41.30;20.92;;;;;;;6.09;78.88;102825.44;5034973;28;20034;-69
2022/01/29 00:33:04;;;;;;;39.92;20.52;;;;;;;6.11;78.93;102821.09;5032001;28;20527;-71
2022/01/29 00:35:31;;;;;;;37.67;21.10;;;;;;;6.10;79.03;102807.13;5029560;28;20042;-69
2022/01/29 00:37:58;;;;;;;46.15;20.45;;;;;;;6.11;79.03;102808.00;5030965;28;20457;-69
2022/01/29 00:40:25;;;;;;;43.05;21.38;;;;;;;6.12;78.90;102797.59;5023259;28;20507;-68
2022/01/29 00:42:52;;;;;;;44.58;21.88;;;;;;;6.13;79.04;102791.50;5027372;28;20514;-68
2022/01/29 00:45:19;;;;;;;41.03;21.50;;;;;;;6.11;79.30;102787.97;5026291;28;20091;-70
2022/01/29 00:47:46;;;;;;;46.55;22.67;;;;;;;6.11;79.29;102781.81;5032709;28;20038;-69
2022/01/29 00:50:13;;;;;;;44.58;22.00;;;;;;;6.11;79.40;102780.09;5017865;28;20497;-70
2022/01/29 00:52:41;;;;;;;45.65;21.92;;;;;;;6.09;79.60;102776.56;5026493;28;20038;-70
2022/01/29 00:55:10;;;;;;;42.55;21.48;;;;;;;6.09;79.94;102770.47;5026690;28;20042;-71
2022/01/29 00:57:39;;;;;;;46.22;21.90;;;;;;;6.06;79.99;102776.50;5025928;28;20046;-69
2022/01/29 01:00:10;;;;;;;46.75;22.48;;;;;;;6.05;80.07;102756.44;5021701;28;20054;-70
2022/01/29 01:02:37;;;;;;;42.92;21.77;;;;;;;6.03;80.31;102755.50;5027890;28;20122;-70
2022/01/29 01:05:06;;;;;;;46.88;22.65;;;;;;;6.01;80.53;102751.97;5017008;28;20050;-68
2022/01/29 01:07:33;;;;;;;51.13;23.45;;;;;;;6.00;80.51;102750.19;5021095;28;20046;-68
2022/01/29 01:10:00;;;;;;;45.65;22.60;;;;;;;5.98;80.63;102744.91;5032521;28;21968;-69
2022/01/29 01:12:27;;;;;;;43.17;22.58;;;;;;;5.97;80.75;102730.06;5027549;28;20050;-68
2022/01/29 01:14:54;;;;;;;44.67;21.25;;;;;;;5.98;80.99;102729.22;5022517;28;20062;-69
2022/01/29 01:17:21;;;;;;;47.95;23.27;;;;;;;5.98;81.17;102723.06;5026425;28;20045;-69
2022/01/29 01:19:48;;;;;;;48.40;23.73;;;;;;;5.96;81.23;102723.06;5028694;28;20548;-69
2022/01/29 01:22:16;;;;;;;48.55;23.13;;;;;;;5.94;81.42;102721.25;5020695;28;20083;-69
2022/01/29 01:24:43;;;;;;;46.35;22.55;;;;;;;5.96;81.64;102732.63;5025846;28;20045;-71
2022/01/29 01:27:10;;;;;;;47.92;23.92;;;;;;;5.94;81.57;102730.00;5017371;28;20047;-69
2022/01/29 01:29:37;;;;;;;49.75;22.77;;;;;;;5.97;81.66;102724.81;5027430;28;20046;-69
2022/01/29 01:32:10;;;;;;;44.45;22.30;;;;;;;5.98;81.55;102726.59;5025480;28;20121;-68
2022/01/29 01:34:44;;;;;;;44.05;23.00;;;;;;;6.00;81.38;102719.66;5026775;28;20046;-69
2022/01/29 01:37:17;;;;;;;49.78;23.67;;;;;;;6.01;81.51;102705.72;5018800;28;20035;-69
2022/01/29 01:39:44;;;;;;;40.80;22.85;;;;;;;6.01;81.91;102708.31;5021240;28;20053;-69
2022/01/29 01:42:11;;;;;;;43.67;22.35;;;;;;;6.03;81.49;102703.16;5030880;28;20046;-68
2022/01/29 01:44:47;;;;;;;49.30;24.17;;;;;;;6.04;81.65;102707.53;5027069;28;20038;-66
2022/01/29 01:47:17;;;;;;;45.45;21.73;;;;;;;6.05;81.78;102701.44;5016854;28;20046;-66
2022/01/29 01:49:44;;;;;;;42.92;22.27;;;;;;;6.04;81.77;102695.31;5019269;28;20045;-67
2022/01/29 01:52:13;;;;;;;48.00;21.85;;;;;;;6.04;81.80;102700.53;5032138;28;20050;-66
2022/01/29 01:54:43;;;;;;;42.95;22.33;;;;;;;6.07;81.95;102691.84;5021503;28;20043;-67
2022/01/29 01:57:10;;;;;;;47.83;23.13;;;;;;;6.10;82.02;102693.66;5036664;28;20045;-67
2022/01/29 01:59:37;;;;;;;46.75;22.73;;;;;;;6.09;81.90;102684.91;5035502;28;20042;-66
2022/01/29 02:02:05;;;;;;;47.67;23.55;;;;;;;6.10;81.77;102677.94;5027274;28;20062;-65
2022/01/29 02:04:33;;;;;;;45.78;23.27;;;;;;;6.09;81.79;102671.81;5019953;28;20105;-70
2022/01/29 02:07:01;;;;;;;42.42;22.80;;;;;;;6.11;81.90;102669.22;5024303;28;20034;-69
2022/01/29 02:09:30;;;;;;;42.90;21.65;;;;;;;6.12;81.87;102666.66;5017118;28;20042;-70
2022/01/29 02:12:03;;;;;;;46.28;22.35;;;;;;;6.12;81.88;102660.50;5025415;28;20052;-70
2022/01/29 02:14:33;;;;;;;45.60;23.63;;;;;;;6.12;81.92;102650.94;5023353;28;20070;-70
2022/01/29 02:17:03;;;;;;;45.05;22.13;;;;;;;6.12;81.96;102652.66;5029012;28;20045;-71
2022/01/29 02:19:31;;;;;;;42.72;21.88;;;;;;;6.11;82.12;102640.41;5035097;28;20042;-71
2022/01/29 02:22:00;;;;;;;44.17;22.30;;;;;;;6.10;82.05;102636.91;5026933;28;20046;-69
2022/01/29 02:24:27;;;;;;;47.20;23.05;;;;;;;6.10;82.30;102651.78;5015820;28;20069;-70
2022/01/29 02:26:54;;;;;;;44.03;22.30;;;;;;;6.10;82.24;102643.91;5014990;28;20133;-70
2022/01/29 02:29:21;;;;;;;45.00;22.35;;;;;;;6.11;82.29;102637.78;5018251;28;20424;-70
2022/01/29 02:31:54;;;;;;;42.05;21.60;;;;;;;6.11;82.67;102648.25;5018006;28;20045;-71
2022/01/29 02:34:23;;;;;;;41.85;22.02;;;;;;;6.10;82.61;102631.69;5025183;28;20070;-72
2022/01/29 02:36:54;;;;;;;41.17;21.42;;;;;;;6.11;82.42;102640.41;5030108;28;20034;-71
2022/01/29 02:39:21;;;;;;;40.10;21.80;;;;;;;6.12;82.52;102631.69;5031000;28;20139;-68
2022/01/29 02:41:49;;;;;;;40.97;21.92;;;;;;;6.11;82.37;102616.84;5025881;28;20533;-71
2022/01/29 02:44:21;;;;;;;38.38;20.38;;;;;;;6.11;82.47;102619.47;5016236;28;20516;-68
2022/01/29 02:49:23;;;;;;;34.70;19.40;;;;;;;6.12;82.73;102616.00;5025803;28;20046;-68
2022/01/29 02:51:55;;;;;;;41.47;20.35;;;;;;;6.11;82.91;102606.38;5028408;28;20061;-69
2022/01/29 02:54:25;;;;;;;37.95;21.20;;;;;;;6.10;82.82;102607.25;5035061;28;20034;-68
2022/01/29 02:56:53;;;;;;;37.13;19.42;;;;;;;6.10;82.99;102596.78;5032288;28;20045;-69
2022/01/29 02:59:20;;;;;;;37.85;18.88;;;;;;;6.09;83.23;102592.41;5015822;28;20054;-67
2022/01/29 03:01:47;;;;;;;37.28;19.30;;;;;;;6.09;83.26;102602.88;5024364;28;20061;-68
2022/01/29 03:04:14;;;;;;;35.92;19.65;;;;;;;6.08;83.31;102593.25;5016148;28;20046;-67
2022/01/29 03:06:41;;;;;;;36.55;19.17;;;;;;;6.08;83.62;102599.34;5026106;28;20042;-69
2022/01/29 03:09:08;;;;;;;32.30;18.27;;;;;;;6.05;83.59;102592.34;5017090;28;20042;-69
2022/01/29 03:11:35;;;;;;;31.30;18.38;;;;;;;6.05;83.90;102591.47;5020486;28;20069;-69
2022/01/29 03:14:03;;;;;;;33.35;18.50;;;;;;;6.07;83.91;102592.34;5027942;28;20038;-70
2022/01/29 03:16:30;;;;;;;35.28;18.23;;;;;;;6.09;83.80;102582.78;5032496;28;20077;-70
2022/01/29 03:18:57;;;;;;;36.20;18.58;;;;;;;6.06;83.76;102577.50;5028814;28;20117;-70
2022/01/29 03:21:24;;;;;;;34.97;17.95;;;;;;;6.09;83.98;102581.91;5024658;28;20050;-69
2022/01/29 03:23:51;;;;;;;32.17;17.92;;;;;;;6.09;84.02;102574.94;5017447;28;20480;-69
2022/01/29 03:26:18;;;;;;;29.98;17.48;;;;;;;6.09;84.18;102569.69;5021281;28;20073;-69
2022/01/29 03:28:45;;;;;;;33.65;18.80;;;;;;;6.09;84.05;102564.47;5027558;28;20436;-68
2022/01/29 03:31:13;;;;;;;29.67;16.70;;;;;;;6.09;84.03;102561.84;5029057;28;20459;-69
2022/01/29 03:33:40;;;;;;;28.60;16.25;;;;;;;6.11;84.02;102554.91;5034303;28;20069;-69
2022/01/29 03:36:07;;;;;;;31.85;16.60;;;;;;;6.13;84.17;102555.81;5021890;28;20030;-69
2022/01/29 03:38:34;;;;;;;29.20;16.67;;;;;;;6.11;84.18;102547.03;5030429;28;20053;-68
2022/01/29 03:41:01;;;;;;;34.28;16.65;;;;;;;6.12;84.49;102553.13;5018730;28;20039;-67
2022/01/29 03:43:33;;;;;;;30.35;16.02;;;;;;;6.12;84.34;102543.56;5031118;28;20049;-69
2022/01/29 03:46:00;;;;;;;31.77;18.17;;;;;;;6.14;84.27;102538.34;5029351;28;20049;-68
2022/01/29 03:48:27;;;;;;;31.30;16.65;;;;;;;6.14;84.27;102541.84;5020269;28;20126;-70
2022/01/29 03:50:54;;;;;;;31.02;16.48;;;;;;;6.16;84.32;102542.72;5020942;28;20039;-69
2022/01/29 03:53:21;;;;;;;30.27;17.35;;;;;;;6.16;84.49;102547.97;5019164;28;20046;-70
2022/01/29 03:55:49;;;;;;;32.53;16.17;;;;;;;6.19;84.57;102534.94;5025512;28;20085;-71
2022/01/29 03:58:16;;;;;;;28.83;15.90;;;;;;;6.18;84.40;102533.16;5033462;28;20084;-70
2022/01/29 04:00:43;;;;;;;31.63;16.90;;;;;;;6.22;84.50;102534.09;5023740;28;20061;-69
2022/01/29 04:03:10;;;;;;;29.17;16.60;;;;;;;6.24;84.40;102535.00;5034101;28;20511;-69
2022/01/29 04:05:37;;;;;;;31.90;17.48;;;;;;;6.25;84.42;102530.66;5030985;28;20038;-67
2022/01/29 04:08:12;;;;;;;31.40;16.23;;;;;;;6.26;84.49;102524.56;5019951;28;20038;-68
2022/01/29 04:10:40;;;;;;;34.15;16.65;;;;;;;6.29;84.47;102529.84;5027421;28;20049;-68
2022/01/29 04:13:10;;;;;;;31.23;17.90;;;;;;;6.29;84.48;102525.50;5018205;28;20486;-68
2022/01/29 04:15:37;;;;;;;31.50;17.02;;;;;;;6.30;84.62;102526.34;5018571;28;20129;-70
2022/01/29 04:18:04;;;;;;;33.97;17.85;;;;;;;6.31;84.59;102526.38;5022454;28;20093;-68
2022/01/29 04:20:32;;;;;;;32.85;16.67;;;;;;;6.32;85.00;102519.41;5024676;28;20042;-68
2022/01/29 04:22:59;;;;;;;34.83;19.42;;;;;;;6.33;84.87;102521.16;5018941;28;20046;-66
2022/01/29 04:25:26;;;;;;;34.92;18.33;;;;;;;6.35;84.73;102522.94;5026729;28;20073;-66
2022/01/29 04:27:53;;;;;;;37.35;18.63;;;;;;;6.37;84.56;102529.09;5017110;28;20052;-66
2022/01/29 04:30:29;;;;;;;37.70;19.25;;;;;;;6.37;84.82;102522.97;5021362;28;20074;-69
2022/01/29 04:33:03;;;;;;;35.35;19.35;;;;;;;6.38;85.22;102516.84;5024424;28;20476;-67
2022/01/29 04:35:31;;;;;;;40.17;20.95;;;;;;;6.38;84.97;102524.72;5022865;28;20500;-66
2022/01/29 04:37:58;;;;;;;38.97;19.50;;;;;;;6.39;84.89;102510.75;5035149;28;20041;-70
2022/01/29 04:40:25;;;;;;;38.80;19.38;;;;;;;6.43;85.13;102509.06;5034066;28;20046;-69
2022/01/29 04:42:52;;;;;;;38.80;19.67;;;;;;;6.42;85.07;102508.19;5024687;28;20042;-70
2022/01/29 04:45:19;;;;;;;36.13;18.63;;;;;;;6.43;85.10;102496.88;5024367;28;20129;-70
2022/01/29 04:47:46;;;;;;;37.42;19.27;;;;;;;6.46;84.90;102493.41;5035582;28;20042;-68
2022/01/29 04:50:13;;;;;;;39.15;18.98;;;;;;;6.47;85.18;102487.28;5045187;28;20793;-70
2022/01/29 04:52:41;;;;;;;37.38;18.48;;;;;;;6.46;85.48;102486.41;5021151;28;20042;-70
2022/01/29 04:55:09;;;;;;;37.03;18.83;;;;;;;6.47;85.54;102477.69;5036641;28;20046;-69
2022/01/29 04:57:37;;;;;;;36.70;18.38;;;;;;;6.47;85.51;102467.19;5026344;28;20129;-70
2022/01/29 05:00:09;;;;;;;38.40;19.75;;;;;;;6.49;85.54;102477.72;5031688;28;20929;-70
2022/01/29 05:02:37;;;;;;;37.55;18.00;;;;;;;6.49;85.34;102472.47;5025939;28;20081;-70
2022/01/29 05:05:05;;;;;;;36.70;18.73;;;;;;;6.52;85.72;102468.16;5028120;28;20046;-68
2022/01/29 05:07:32;;;;;;;34.95;18.70;;;;;;;6.54;85.84;102457.69;5019911;28;20042;-69
2022/01/29 05:09:59;;;;;;;31.65;17.40;;;;;;;6.59;85.58;102460.34;5017884;28;20721;-69
2022/01/29 05:12:34;;;;;;;34.38;17.75;;;;;;;6.60;85.50;102468.25;5019735;28;20060;-69
2022/01/29 05:28:11;;;;;;;33.10;17.73;;;;;;;6.73;85.55;102444.78;5019044;28;20041;-68
2022/01/29 05:30:38;;;;;;;34.58;17.83;;;;;;;6.73;85.52;102450.03;5017789;28;20038;-69
2022/01/29 05:33:05;;;;;;;34.53;17.92;;;;;;;6.77;85.45;102450.09;5022250;28;20469;-68
2022/01/29 05:35:32;;;;;;;34.38;17.85;;;;;;;6.79;85.45;102451.00;5035495;28;20104;-67
2022/01/29 05:38:00;;;;;;;32.75;17.95;;;;;;;6.81;85.59;102453.66;5033771;28;20038;-68
2022/01/29 05:40:27;;;;;;;34.40;17.48;;;;;;;6.82;85.54;102452.75;5032432;28;20489;-68
2022/01/29 05:42:54;;;;;;;32.95;17.90;;;;;;;6.83;85.58;102452.78;5031490;28;20046;-66
2022/01/29 05:45:21;;;;;;;32.90;17.67;;;;;;;6.86;85.86;102446.69;5023563;28;20093;-70
2022/01/29 05:47:48;;;;;;;38.45;19.90;;;;;;;6.89;85.72;102444.13;5025838;28;20058;-66
2022/01/29 05:50:15;;;;;;;37.92;20.25;;;;;;;6.90;85.73;102445.88;5020100;28;20043;-69
2022/01/29 05:52:42;;;;;;;35.05;19.25;;;;;;;6.92;85.52;102440.66;5032303;28;20097;-67
2022/01/29 05:55:09;;;;;;;36.10;18.75;;;;;;;6.93;85.59;102435.41;5022735;28;20038;-68
2022/01/29 05:57:36;;;;;;;37.28;19.23;;;;;;;6.97;85.65;102425.81;5022302;28;20042;-67
2022/01/29 06:00:05;;;;;;;37.05;18.80;;;;;;;6.97;85.78;102429.34;5025777;28;20047;-67
2022/01/29 06:02:41;;;;;;;35.55;19.05;;;;;;;6.98;85.80;102436.34;5024113;28;20557;-67
2022/01/29 06:05:08;;;;;;;39.47;20.63;;;;;;;7.01;85.90;102424.13;5029763;28;20045;-66
2022/01/29 06:07:35;;;;;;;40.33;20.67;;;;;;;7.01;85.73;102430.25;5031074;28;20069;-66
2022/01/29 06:10:04;;;;;;;41.40;20.35;;;;;;;7.04;85.76;102425.03;5034362;28;20338;-69
2022/01/29 06:12:36;;;;;;;42.85;20.50;;;;;;;7.05;85.67;102424.19;5035928;28;20042;-67
2022/01/29 06:15:04;;;;;;;35.05;19.35;;;;;;;7.05;85.76;102426.81;5033978;28;20544;-67
2022/01/29 06:17:31;;;;;;;40.00;21.27;;;;;;;7.06;85.89;102415.44;5028609;28;20045;-67
2022/01/29 06:19:58;;;;;;;35.78;19.75;;;;;;;7.08;85.74;102415.47;5022220;28;20445;-68
2022/01/29 06:22:26;;;;;;;39.30;20.13;;;;;;;7.09;85.62;102414.59;5019464;28;20038;-67
2022/01/29 06:24:53;;;;;;;40.35;19.58;;;;;;;7.11;85.70;102410.25;5030034;28;20045;-69
2022/01/29 06:27:20;;;;;;;37.45;18.35;;;;;;;7.12;86.10;102405.00;5018881;28;20121;-67
2022/01/29 06:29:47;;;;;;;41.70;21.77;;;;;;;7.11;85.92;102408.50;5020522;28;20050;-68
2022/01/29 06:32:17;;;;;;;42.30;21.55;;;;;;;7.15;85.87;102414.63;5018152;28;20049;-67
2022/01/29 06:34:44;;;;;;;39.78;21.48;;;;;;;7.16;85.95;102403.28;5019145;28;20480;-69
2022/01/29 06:37:11;;;;;;;45.33;22.23;;;;;;;7.18;85.85;102403.28;5027070;28;20050;-68
2022/01/29 06:39:38;;;;;;;41.13;21.30;;;;;;;7.21;85.87;102398.09;5033791;28;20065;-67
2022/01/29 06:42:05;;;;;;;39.08;22.55;;;;;;;7.23;85.81;102399.84;5030608;28;20449;-68
2022/01/29 06:44:32;;;;;;;37.13;21.48;;;;;;;7.26;85.72;102399.00;5022147;28;20042;-66
2022/01/29 06:47:02;;;;;;;41.58;21.42;;;;;;;7.28;85.62;102387.66;5025119;28;20049;-66
2022/01/29 06:49:29;;;;;;;41.83;22.13;;;;;;;7.29;85.71;102396.41;5032156;28;20065;-68
2022/01/29 06:51:56;;;;;;;41.88;22.48;;;;;;;7.29;85.57;102388.53;5017114;28;20103;-68
2022/01/29 06:54:24;;;;;;;43.13;23.42;;;;;;;7.31;85.70;102392.03;5018200;28;20045;-67
2022/01/29 06:56:51;;;;;;;41.97;22.13;;;;;;;7.31;85.64;102389.41;5024787;28;20045;-67
2022/01/29 06:59:18;;;;;;;38.20;22.75;;;;;;;7.32;85.50;102388.56;5031849;28;20037;-68
2022/01/29 07:01:45;;;;;;;35.75;20.48;;;;;;;7.36;85.60;102389.47;5023453;28;20062;-69
2022/01/29 07:04:12;;;;;;;44.35;22.77;;;;;;;7.36;85.66;102395.59;5029451;28;20501;-70
2022/01/29 07:06:39;;;;;;;37.03;22.45;;;;;;;7.38;85.70;102398.22;5028510;28;20049;-67
2022/01/29 07:09:06;;;;;;;42.17;21.60;;;;;;;7.38;85.73;102396.47;5030603;28;20125;-69
2022/01/29 07:11:34;;;;;;;35.67;21.95;;;;;;;7.39;85.57;102392.13;5028071;28;20046;-70
2022/01/29 07:14:04;;;;;;;39.20;22.65;;;;;;;7.40;85.43;102386.00;5032461;28;20510;-66
2022/01/29 07:16:34;;;;;;;39.83;21.15;;;;;;;7.39;85.50;102385.09;5029694;28;20069;-68
2022/01/29 07:19:03;;;;;;;37.55;20.92;;;;;;;7.42;85.50;102389.53;5025817;28;20042;-69
2022/01/29 07:21:33;;;;;;;37.20;22.05;;;;;;;7.43;85.35;102384.28;5025197;28;20034;-68
2022/01/29 07:24:03;;;;;;;36.28;20.27;;;;;;;7.45;85.62;102379.94;5029700;28;20042;-70
2022/01/29 07:26:32;;;;;;;38.97;20.92;;;;;;;7.46;85.46;102386.03;5026974;28;20116;-67
2022/01/29 07:29:00;;;;;;;38.85;22.13;;;;;;;7.47;85.36;102377.31;5026956;28;20089;-69
2022/01/29 07:31:27;;;;;;;39.65;21.50;;;;;;;7.47;85.43;102372.06;5026370;28;20524;-68
2022/01/29 07:33:55;;;;;;;32.88;19.75;;;;;;;7.50;85.23;102372.09;5028400;28;20077;-68
2022/01/29 07:36:23;;;;;;;38.45;21.30;;;;;;;7.52;85.41;102375.59;5024801;28;20694;-66
2022/01/29 07:38:50;;;;;;;40.63;21.42;;;;;;;7.55;85.27;102378.22;5028158;28;20116;-66
2022/01/29 07:41:17;;;;;;;37.40;20.77;;;;;;;7.57;85.27;102383.50;5027963;28;20984;-66
2022/01/29 07:43:44;;;;;;;34.92;21.35;;;;;;;7.60;85.25;102376.53;5026996;28;20079;-62
2022/01/29 07:46:11;;;;;;;38.17;21.40;;;;;;;7.61;85.34;102380.00;5023827;28;20038;-67
2022/01/29 07:48:38;;;;;;;34.75;20.98;;;;;;;7.60;85.13;102370.38;5021418;28;20050;-65
2022/01/29 07:51:07;;;;;;;37.30;21.60;;;;;;;7.61;85.16;102375.66;5030422;28;20522;-67
2022/01/29 07:53:34;;;;;;;35.20;20.63;;;;;;;7.63;85.07;102373.03;5027401;28;20493;-67
2022/01/29 07:56:02;;;;;;;35.83;20.85;;;;;;;7.65;85.19;102360.81;5023326;28;20049;-65
2022/01/29 07:58:29;;;;;;;37.40;21.00;;;;;;;7.67;85.19;102358.19;5029182;28;20054;-66
2022/01/29 08:00:57;;;;;;;37.53;20.85;;;;;;;7.68;85.04;102354.69;5029079;28;20124;-67
2022/01/29 08:03:25;;;;;;;38.30;20.90;;;;;;;7.69;85.10;102348.56;5028273;28;20073;-67
2022/01/29 08:05:52;;;;;;;30.45;19.45;;;;;;;7.74;84.92;102344.22;5032792;28;20869;-65
2022/01/29 08:08:20;;;;;;;32.25;18.90;;;;;;;7.75;85.16;102338.09;5027028;28;20041;-67
2022/01/29 08:10:48;;;;;;;34.80;19.88;;;;;;;7.79;85.23;102332.00;5020041;28;20057;-67
2022/01/29 08:13:16;;;;;;;32.80;18.77;;;;;;;7.84;84.99;102346.03;5020672;28;20100;-69
2022/01/29 08:15:43;;;;;;;30.02;19.42;;;;;;;7.93;85.52;102345.19;5026906;28;20117;-65
2022/01/29 08:18:10;;;;;;;31.17;19.52;;;;;;;8.02;85.24;102337.34;5022383;28;20473;-67
2022/01/29 08:20:37;;;;;;;31.23;19.70;;;;;;;8.11;85.08;102336.53;5024205;28;20042;-68
2022/01/29 08:23:08;;;;;;;32.00;19.20;;;;;;;8.12;84.58;102337.38;5023682;28;20066;-69
2022/01/29 08:25:37;;;;;;;29.85;19.00;;;;;;;8.09;84.57;102336.50;5021906;28;20041;-69
2022/01/29 08:28:05;;;;;;;29.58;18.80;;;;;;;8.06;84.60;102328.63;5033205;28;20038;-69
2022/01/29 08:30:33;;;;;;;30.73;19.25;;;;;;;8.04;84.85;102325.13;5028858;28;20081;-68
2022/01/29 08:33:00;;;;;;;31.33;18.80;;;;;;;8.05;84.83;102331.22;5033299;28;20069;-68
2022/01/29 08:35:28;;;;;;;32.08;19.35;;;;;;;8.05;84.93;102329.50;5031095;28;20050;-70
2022/01/29 08:37:57;;;;;;;33.33;20.40;;;;;;;8.08;85.02;102324.28;5030239;28;20038;-69
2022/01/29 08:40:26;;;;;;;30.77;20.15;;;;;;;8.08;84.86;102320.75;5032929;28;20042;-70
2022/01/29 08:42:54;;;;;;;33.33;19.75;;;;;;;8.13;84.95;102321.66;5033935;28;20109;-69
2022/01/29 08:45:21;;;;;;;31.25;19.25;;;;;;;8.15;84.87;102314.63;5025558;28;20033;-68
2022/01/29 08:47:48;;;;;;;30.80;19.30;;;;;;;8.18;84.89;102312.03;5023368;28;20048;-68
2022/01/29 08:50:15;;;;;;;30.48;18.85;;;;;;;8.21;84.96;102316.41;5018361;28;20142;-69
2022/01/29 08:52:43;;;;;;;27.77;18.77;;;;;;;8.24;84.97;102321.69;5029267;28;20049;-68
2022/01/29 08:55:10;;;;;;;29.55;19.10;;;;;;;8.25;84.87;102307.69;5041788;28;20045;-69
2022/01/29 08:57:38;;;;;;;29.70;18.70;;;;;;;8.26;84.93;102303.28;5052582;28;20036;-69
2022/01/29 09:00:09;;;;;;;29.73;18.55;;;;;;;8.26;85.20;102300.66;5030068;28;20046;-69
2022/01/29 09:02:37;;;;;;;30.13;18.75;;;;;;;8.26;85.12;102303.28;5016845;28;20039;-69
2022/01/29 09:05:05;;;;;;;32.70;20.50;;;;;;;8.26;85.14;102292.78;5035913;28;20052;-68
2022/01/29 09:07:34;;;;;;;34.35;19.80;;;;;;;8.28;85.04;102289.31;5045935;28;20046;-68
2022/01/29 09:10:01;;;;;;;29.65;18.63;;;;;;;8.31;85.06;102273.53;5022213;28;20468;-69
2022/01/29 09:12:30;;;;;;;31.33;20.02;;;;;;;8.34;85.04;102272.69;5028323;28;20070;-69
2022/01/29 09:14:57;;;;;;;33.08;19.92;;;;;;;8.35;85.07;102269.16;5022939;28;20111;-70
2022/01/29 09:17:24;;;;;;;27.85;20.17;;;;;;;8.40;84.78;102277.94;5028403;28;20042;-67
2022/01/29 09:19:51;;;;;;;33.40;20.88;;;;;;;8.42;84.79;102262.16;5022853;28;20129;-70
2022/01/29 09:22:19;;;;;;;29.75;19.38;;;;;;;8.42;84.83;102260.41;5033101;28;20042;-69
2022/01/29 09:24:46;;;;;;;28.75;19.58;;;;;;;8.45;84.86;102260.41;5031834;28;20113;-68
2022/01/29 09:27:13;;;;;;;28.02;19.02;;;;;;;8.47;84.85;102258.69;5017884;28;20405;-69
2022/01/29 09:29:41;;;;;;;27.58;19.02;;;;;;;8.51;84.82;102252.56;5019060;28;20523;-70
2022/01/29 09:32:08;;;;;;;28.65;19.05;;;;;;;8.55;84.80;102269.22;5012228;28;20051;-66
2022/01/29 09:34:35;;;;;;;28.00;19.15;;;;;;;8.58;84.87;102277.13;5013603;28;20043;-68
2022/01/29 09:37:02;;;;;;;31.50;19.60;;;;;;;8.60;84.80;102279.75;5013342;28;20054;-69
2022/01/29 09:39:29;;;;;;;28.58;18.88;;;;;;;8.61;84.88;102276.25;5029408;28;20035;-69
2022/01/29 09:41:57;;;;;;;30.13;18.77;;;;;;;8.62;85.13;102278.00;5012646;28;20517;-69
2022/01/29 09:44:24;;;;;;;27.17;17.98;;;;;;;8.63;85.09;102270.09;5013605;28;20046;-68
2022/01/29 09:46:52;;;;;;;25.73;17.42;;;;;;;8.65;85.12;102272.72;5013391;28;20039;-69
2022/01/29 09:49:19;;;;;;;40.42;20.45;;;;;;;8.65;85.31;102275.34;5013738;28;20124;-69
2022/01/29 09:51:46;;;;;;;27.85;18.38;;;;;;;8.68;85.12;102276.25;5011976;28;20034;-69
2022/01/29 09:54:13;;;;;;;28.77;18.85;;;;;;;8.72;84.89;102273.59;5012706;28;20038;-69
2022/01/29 09:56:40;;;;;;;30.38;19.85;;;;;;;8.74;84.91;102262.22;5010085;28;20511;-69
2022/01/29 09:59:08;;;;;;;44.80;28.05;;;;;;;8.76;84.93;102263.09;5012137;28;20445;-70
2022/01/29 10:01:35;;;;;;;33.13;21.15;;;;;;;8.80;84.90;102279.75;4994914;28;20491;-69
2022/01/29 10:04:05;;;;;;;31.75;20.45;;;;;;;8.81;84.77;102269.22;5013540;28;20039;-71
2022/01/29 10:06:35;;;;;;;28.98;18.02;;;;;;;8.82;84.65;102257.84;5012923;28;20106;-69
2022/01/29 10:09:09;;;;;;;27.98;18.67;;;;;;;8.86;84.53;102263.97;5015671;28;20042;-68
2022/01/29 10:11:37;;;;;;;;;;;;;;;8.88;84.48;102272.75;5012710;28;20054;-69
2022/01/29 10:14:06;;;;;;;23.30;15.63;;;;;;;8.94;84.22;102266.59;5000951;28;19949;-67
2022/01/29 10:16:41;;;;;;;25.48;16.92;;;;;;;8.96;84.22;102264.81;5007087;28;20042;-68
2022/01/29 10:19:13;;;;;;;24.15;16.00;;;;;;;8.98;84.08;102260.44;5011900;28;20058;-68
2022/01/29 10:21:47;;;;;;;22.60;17.38;;;;;;;9.00;84.01;102256.94;5016216;28;20043;-67
2022/01/29 10:24:17;;;;;;;24.13;16.55;;;;;;;9.05;83.94;102251.69;5015839;28;20045;-68
2022/01/29 10:26:48;;;;;;;24.20;14.88;;;;;;;9.07;83.89;102254.31;5016020;28;20501;-68
2022/01/29 10:29:19;;;;;;;25.30;15.60;;;;;;;9.09;83.72;102250.78;5000730;28;20155;-67
2022/01/29 10:31:53;;;;;;;20.15;14.88;;;;;;;9.12;83.48;102240.28;5028154;28;20069;-68
2022/01/29 10:34:34;;;;;;;22.20;15.73;;;;;;;9.14;83.58;102230.63;5015886;28;20047;-68
2022/01/29 10:37:15;;;;;;;19.88;14.27;;;;;;;9.16;83.47;102227.97;5013533;28;20043;-69
2022/01/29 10:39:56;;;;;;;21.50;14.52;;;;;;;9.15;83.35;102208.69;5012269;28;20559;-67
2022/01/29 10:42:38;;;;;;;22.88;14.60;;;;;;;9.16;83.38;102199.91;5012907;28;20042;-69
2022/01/29 10:45:09;;;;;;;18.63;14.38;;;;;;;9.19;83.38;102206.94;5009485;28;20038;-68
2022/01/29 10:48:06;;;;;;;19.52;14.32;;;;;;;9.24;83.04;102202.53;5014113;28;20527;-68
2022/01/29 10:50:33;;;;;;;17.90;12.60;;;;;;;9.29;83.10;102195.50;4997847;28;20078;-68
2022/01/29 10:53:24;;;;;;;17.05;12.88;;;;;;;9.37;82.63;102195.44;5014657;28;20050;-69
2022/01/29 10:56:03;;;;;;;19.58;13.13;;;;;;;9.45;82.47;102187.53;5011854;28;20042;-70
2022/01/29 10:58:42;;;;;;;15.35;12.98;;;;;;;9.51;82.12;102186.63;5013002;28;20113;-68
2022/01/29 11:01:21;;;;;;;16.15;13.25;;;;;;;9.52;82.28;102186.63;5011072;28;20054;-69
2022/01/29 11:03:54;;;;;;;17.95;13.98;;;;;;;9.52;82.08;102186.63;5014807;28;20042;-69
2022/01/29 11:06:31;;;;;;;19.25;12.20;;;;;;;9.55;81.85;102176.06;5011328;28;20122;-66
2022/01/29 11:09:00;;;;;;;17.95;13.35;;;;;;;9.57;81.78;102176.94;5011815;28;20042;-67
2022/01/29 11:11:27;;;;;;;18.30;13.68;;;;;;;9.60;81.65;102182.22;5007499;28;20601;-69
2022/01/29 11:14:13;;;;;;;17.95;12.98;;;;;;;9.60;81.58;102169.06;5011844;28;20471;-66
2022/01/29 11:16:43;;;;;;;16.75;11.98;;;;;;;9.64;81.59;102172.53;5012291;28;20030;-67
2022/01/29 11:19:11;;;;;;;14.52;10.88;;;;;;;9.69;80.95;102161.97;5011780;28;20034;-68
2022/01/29 11:21:42;;;;;;;14.73;11.60;;;;;;;9.72;81.37;102172.47;5011275;28;20050;-68
2022/01/29 11:24:12;;;;;;;17.40;11.80;;;;;;;9.76;81.08;102156.69;5010532;28;20407;-68
2022/01/29 11:26:41;;;;;;;16.73;11.93;;;;;;;9.78;80.91;102160.16;5013060;28;20045;-68
2022/01/29 11:29:33;;;;;;;18.95;12.10;;;;;;;9.80;81.11;102157.53;5012671;28;20042;-68
2022/01/29 11:32:22;;;;;;;16.00;11.93;;;;;;;9.84;80.81;102143.44;5013050;28;20046;-68
2022/01/29 11:35:17;;;;;;;16.88;12.25;;;;;;;9.83;80.77;102120.63;5027728;28;20130;-68
2022/01/29 11:38:01;;;;;;;17.50;11.55;;;;;;;9.85;80.71;102120.63;5013361;28;20039;-69
2022/01/29 11:41:02;;;;;;;15.60;11.20;;;;;;;9.97;80.51;102122.28;5012879;28;20145;-68